Weather at Episkopi Cantonment Helipad

Public forecast

Using degrees Celsius for public forecast. Weather courtesy of forecast.io.

Closest aviation weather report (METAR) to Episkopi Cantonment Helipad

Closest report is RAF Akrotiri, 9.0 nm (16.6 km) SE.

2024/06/19 02:50 (retrieved 1 hour ago)

LCRA 190250Z 08004KT 4000 BR SCT002 25/24 Q1007 BECMG 9999 NSW FEW012

Closest aviation forecast (TAF) to Episkopi Cantonment Helipad

Forecast is more than 12 hours old.

Closest forecast is Hmeimim Air Base, 158.4 nm (293.3 km) ENE.

2024/06/18 06:00 (retrieved 22 hours ago)

TAF OSLK 180500Z 1806/1906 27012KT CAVOK TEMPO 1818/1906 03006KT